sensor_id;sensor_type;location;lat;lon;timestamp;P1;durP1;ratioP1;P2;durP2;ratioP2
61553;SDS011;47425;51.976;5.326;2022-10-16T09:02:40;8.20;;;1.52;;
61553;SDS011;47425;51.976;5.326;2022-10-16T09:08:25;4.82;;;1.48;;
61553;SDS011;47425;51.976;5.326;2022-10-16T09:11:11;5.43;;;1.10;;
61553;SDS011;47425;51.976;5.326;2022-10-16T09:16:48;4.72;;;1.30;;
61553;SDS011;47425;51.976;5.326;2022-10-16T09:19:28;5.10;;;1.50;;
61553;SDS011;47425;51.976;5.326;2022-10-16T09:22:14;6.18;;;1.58;;
61553;SDS011;47425;51.976;5.326;2022-10-16T09:24:42;6.00;;;1.63;;
61553;SDS011;47425;51.976;5.326;2022-10-16T09:27:09;4.20;;;1.67;;
61553;SDS011;47425;51.976;5.326;2022-10-16T09:29:37;4.60;;;1.40;;
61553;SDS011;47425;51.976;5.326;2022-10-16T09:32:10;6.10;;;1.52;;
61553;SDS011;47425;51.976;5.326;2022-10-16T09:34:41;8.82;;;1.95;;
61553;SDS011;47425;51.976;5.326;2022-10-16T09:37:12;3.08;;;1.30;;
61553;SDS011;47425;51.976;5.326;2022-10-16T09:39:47;3.78;;;1.42;;
61553;SDS011;47425;51.976;5.326;2022-10-16T09:42:16;7.10;;;1.33;;
61553;SDS011;47425;51.976;5.326;2022-10-16T09:44:48;6.15;;;1.25;;
61553;SDS011;47425;51.976;5.326;2022-10-16T09:47:17;3.07;;;1.27;;
61553;SDS011;47425;51.976;5.326;2022-10-16T09:49:54;15.85;;;2.92;;
61553;SDS011;47425;51.976;5.326;2022-10-16T09:52:22;14.35;;;2.30;;
61553;SDS011;47425;51.976;5.326;2022-10-16T09:54:56;12.07;;;2.35;;
61553;SDS011;47425;51.976;5.326;2022-10-16T09:57:25;11.30;;;2.40;;
61553;SDS011;47425;51.976;5.326;2022-10-16T09:59:54;8.13;;;1.80;;
61553;SDS011;47425;51.976;5.326;2022-10-16T10:02:31;12.50;;;2.22;;
61553;SDS011;47425;51.976;5.326;2022-10-16T10:05:00;11.88;;;2.05;;
61553;SDS011;47425;51.976;5.326;2022-10-16T10:07:29;6.88;;;1.77;;
61553;SDS011;47425;51.976;5.326;2022-10-16T10:10:02;10.48;;;2.38;;
61553;SDS011;47425;51.976;5.326;2022-10-16T10:12:30;8.10;;;1.98;;
61553;SDS011;47425;51.976;5.326;2022-10-16T10:15:04;6.65;;;2.05;;
61553;SDS011;47425;51.976;5.326;2022-10-16T10:17:30;8.43;;;1.90;;
61553;SDS011;47425;51.976;5.326;2022-10-16T10:19:57;8.38;;;2.08;;
61553;SDS011;47425;51.976;5.326;2022-10-16T10:25:42;6.07;;;1.67;;
61553;SDS011;47425;51.976;5.326;2022-10-16T10:28:21;9.73;;;1.95;;
61553;SDS011;47425;51.976;5.326;2022-10-16T10:31:00;7.38;;;1.75;;
61553;SDS011;47425;51.976;5.326;2022-10-16T10:33:38;6.55;;;2.20;;
61553;SDS011;47425;51.976;5.326;2022-10-16T10:43:57;8.77;;;2.00;;
61553;SDS011;47425;51.976;5.326;2022-10-16T10:46:35;3.80;;;1.80;;
61553;SDS011;47425;51.976;5.326;2022-10-16T10:49:10;5.95;;;1.80;;
61553;SDS011;47425;51.976;5.326;2022-10-16T10:51:54;5.95;;;1.60;;
61553;SDS011;47425;51.976;5.326;2022-10-16T11:03:16;4.70;;;1.50;;
61553;SDS011;47425;51.976;5.326;2022-10-16T11:05:56;4.03;;;1.60;;
61553;SDS011;47425;51.976;5.326;2022-10-16T11:08:35;3.70;;;1.80;;
61553;SDS011;47425;51.976;5.326;2022-10-16T11:11:14;4.43;;;1.50;;
61553;SDS011;47425;51.976;5.326;2022-10-16T11:17:04;4.22;;;1.92;;
61553;SDS011;47425;51.976;5.326;2022-10-16T11:22:27;4.95;;;1.50;;
61553;SDS011;47425;51.976;5.326;2022-10-16T11:25:21;3.03;;;1.73;;
61553;SDS011;47425;51.976;5.326;2022-10-16T11:27:56;2.53;;;1.60;;
61553;SDS011;47425;51.976;5.326;2022-10-16T11:36:08;3.85;;;1.52;;
61553;SDS011;47425;51.976;5.326;2022-10-16T11:38:50;4.18;;;1.48;;
61553;SDS011;47425;51.976;5.326;2022-10-16T11:47:07;3.50;;;1.27;;
61553;SDS011;47425;51.976;5.326;2022-10-16T11:49:39;5.90;;;1.65;;
61553;SDS011;47425;51.976;5.326;2022-10-16T11:52:10;9.67;;;1.87;;
61553;SDS011;47425;51.976;5.326;2022-10-16T11:57:38;3.42;;;1.50;;
61553;SDS011;47425;51.976;5.326;2022-10-16T12:00:20;4.07;;;1.40;;
61553;SDS011;47425;51.976;5.326;2022-10-16T12:08:40;3.30;;;1.42;;
61553;SDS011;47425;51.976;5.326;2022-10-16T12:11:53;2.58;;;1.30;;
61553;SDS011;47425;51.976;5.326;2022-10-16T12:16:38;4.75;;;1.90;;
61553;SDS011;47425;51.976;5.326;2022-10-16T12:21:43;2.65;;;1.60;;
61553;SDS011;47425;51.976;5.326;2022-10-16T12:26:58;2.33;;;1.10;;
61553;SDS011;47425;51.976;5.326;2022-10-16T12:32:02;3.28;;;1.38;;
61553;SDS011;47425;51.976;5.326;2022-10-16T12:34:37;2.78;;;1.50;;
61553;SDS011;47425;51.976;5.326;2022-10-16T12:37:09;4.05;;;1.52;;
61553;SDS011;47425;51.976;5.326;2022-10-16T12:39:46;2.42;;;1.30;;
61553;SDS011;47425;51.976;5.326;2022-10-16T12:42:20;3.55;;;1.52;;
61553;SDS011;47425;51.976;5.326;2022-10-16T12:44:47;4.38;;;1.45;;
61553;SDS011;47425;51.976;5.326;2022-10-16T12:47:23;2.83;;;1.30;;
61553;SDS011;47425;51.976;5.326;2022-10-16T12:49:59;3.33;;;1.40;;
61553;SDS011;47425;51.976;5.326;2022-10-16T12:55:02;4.00;;;1.20;;
61553;SDS011;47425;51.976;5.326;2022-10-16T13:00:39;2.92;;;1.20;;
61553;SDS011;47425;51.976;5.326;2022-10-16T13:12:22;4.38;;;1.38;;
61553;SDS011;47425;51.976;5.326;2022-10-16T13:15:07;2.35;;;1.15;;
61553;SDS011;47425;51.976;5.326;2022-10-16T13:18:10;1.95;;;1.13;;
61553;SDS011;47425;51.976;5.326;2022-10-16T13:20:50;4.03;;;1.15;;
61553;SDS011;47425;51.976;5.326;2022-10-16T13:26:17;2.75;;;1.42;;
61553;SDS011;47425;51.976;5.326;2022-10-16T13:29:00;5.13;;;1.42;;
61553;SDS011;47425;51.976;5.326;2022-10-16T13:31:26;3.08;;;1.58;;
61553;SDS011;47425;51.976;5.326;2022-10-16T13:33:54;3.58;;;1.75;;
61553;SDS011;47425;51.976;5.326;2022-10-16T13:36:29;2.67;;;1.20;;
61553;SDS011;47425;51.976;5.326;2022-10-16T13:39:24;4.38;;;1.35;;
61553;SDS011;47425;51.976;5.326;2022-10-16T13:42:05;2.90;;;1.25;;
61553;SDS011;47425;51.976;5.326;2022-10-16T13:44:39;5.13;;;1.50;;
61553;SDS011;47425;51.976;5.326;2022-10-16T13:50:09;9.38;;;2.17;;
61553;SDS011;47425;51.976;5.326;2022-10-16T13:52:38;11.88;;;1.95;;
61553;SDS011;47425;51.976;5.326;2022-10-16T13:55:05;9.57;;;2.10;;
61553;SDS011;47425;51.976;5.326;2022-10-16T13:57:36;10.38;;;2.38;;
61553;SDS011;47425;51.976;5.326;2022-10-16T14:00:03;9.00;;;2.20;;
61553;SDS011;47425;51.976;5.326;2022-10-16T14:02:49;9.73;;;2.50;;
61553;SDS011;47425;51.976;5.326;2022-10-16T14:05:19;12.05;;;2.10;;
61553;SDS011;47425;51.976;5.326;2022-10-16T14:07:47;10.65;;;2.13;;
61553;SDS011;47425;51.976;5.326;2022-10-16T14:10:21;9.85;;;2.03;;
61553;SDS011;47425;51.976;5.326;2022-10-16T14:12:58;14.38;;;2.17;;
61553;SDS011;47425;51.976;5.326;2022-10-16T14:15:27;11.63;;;2.53;;
61553;SDS011;47425;51.976;5.326;2022-10-16T14:17:55;12.67;;;2.37;;
61553;SDS011;47425;51.976;5.326;2022-10-16T14:20:22;10.18;;;2.20;;
61553;SDS011;47425;51.976;5.326;2022-10-16T14:22:57;12.25;;;2.63;;
61553;SDS011;47425;51.976;5.326;2022-10-16T14:25:29;9.60;;;1.80;;
61553;SDS011;47425;51.976;5.326;2022-10-16T14:32:55;7.43;;;2.00;;
61553;SDS011;47425;51.976;5.326;2022-10-16T14:35:31;5.72;;;2.13;;
61553;SDS011;47425;51.976;5.326;2022-10-16T14:38:00;8.05;;;1.77;;
61553;SDS011;47425;51.976;5.326;2022-10-16T14:40:28;9.30;;;2.17;;
61553;SDS011;47425;51.976;5.326;2022-10-16T14:42:57;6.55;;;1.90;;
61553;SDS011;47425;51.976;5.326;2022-10-16T14:45:26;7.90;;;2.00;;
61553;SDS011;47425;51.976;5.326;2022-10-16T14:47:58;11.90;;;2.10;;
61553;SDS011;47425;51.976;5.326;2022-10-16T14:50:28;8.27;;;1.77;;
61553;SDS011;47425;51.976;5.326;2022-10-16T14:52:53;9.45;;;2.35;;
61553;SDS011;47425;51.976;5.326;2022-10-16T14:55:21;7.65;;;1.98;;
61553;SDS011;47425;51.976;5.326;2022-10-16T14:57:46;8.00;;;1.95;;
61553;SDS011;47425;51.976;5.326;2022-10-16T15:00:17;7.25;;;2.10;;
61553;SDS011;47425;51.976;5.326;2022-10-16T15:02:47;10.00;;;2.10;;
61553;SDS011;47425;51.976;5.326;2022-10-16T15:05:18;7.77;;;1.93;;
61553;SDS011;47425;51.976;5.326;2022-10-16T15:07:49;9.57;;;2.03;;
61553;SDS011;47425;51.976;5.326;2022-10-16T15:10:16;9.80;;;1.80;;
61553;SDS011;47425;51.976;5.326;2022-10-16T15:12:44;7.03;;;2.30;;
61553;SDS011;47425;51.976;5.326;2022-10-16T15:17:52;8.55;;;1.70;;
61553;SDS011;47425;51.976;5.326;2022-10-16T15:20:20;8.35;;;1.98;;
61553;SDS011;47425;51.976;5.326;2022-10-16T15:22:47;10.57;;;2.15;;
61553;SDS011;47425;51.976;5.326;2022-10-16T15:25:25;9.15;;;2.33;;
61553;SDS011;47425;51.976;5.326;2022-10-16T15:27:54;8.48;;;2.08;;
61553;SDS011;47425;51.976;5.326;2022-10-16T15:30:20;10.48;;;1.80;;
61553;SDS011;47425;51.976;5.326;2022-10-16T15:32:47;8.50;;;1.98;;
61553;SDS011;47425;51.976;5.326;2022-10-16T15:35:12;6.00;;;1.83;;
61553;SDS011;47425;51.976;5.326;2022-10-16T15:37:37;12.20;;;2.22;;
61553;SDS011;47425;51.976;5.326;2022-10-16T15:40:04;6.68;;;2.00;;
61553;SDS011;47425;51.976;5.326;2022-10-16T15:42:30;8.57;;;1.90;;
61553;SDS011;47425;51.976;5.326;2022-10-16T15:44:55;6.75;;;1.30;;
61553;SDS011;47425;51.976;5.326;2022-10-16T15:47:21;9.38;;;2.03;;
61553;SDS011;47425;51.976;5.326;2022-10-16T15:49:47;14.00;;;1.92;;
61553;SDS011;47425;51.976;5.326;2022-10-16T15:52:13;9.40;;;1.77;;
61553;SDS011;47425;51.976;5.326;2022-10-16T15:54:38;8.55;;;2.08;;
61553;SDS011;47425;51.976;5.326;2022-10-16T15:57:24;8.32;;;2.08;;
61553;SDS011;47425;51.976;5.326;2022-10-16T15:59:50;8.43;;;1.92;;
61553;SDS011;47425;51.976;5.326;2022-10-16T16:02:16;7.03;;;1.85;;
61553;SDS011;47425;51.976;5.326;2022-10-16T16:04:41;6.40;;;1.60;;
61553;SDS011;47425;51.976;5.326;2022-10-16T16:07:08;9.85;;;2.00;;
61553;SDS011;47425;51.976;5.326;2022-10-16T16:09:34;12.13;;;1.70;;
61553;SDS011;47425;51.976;5.326;2022-10-16T16:11:59;5.50;;;1.70;;
61553;SDS011;47425;51.976;5.326;2022-10-16T16:14:26;12.18;;;2.20;;
61553;SDS011;47425;51.976;5.326;2022-10-16T16:16:54;9.45;;;1.80;;
61553;SDS011;47425;51.976;5.326;2022-10-16T16:19:20;6.75;;;2.13;;
61553;SDS011;47425;51.976;5.326;2022-10-16T16:21:49;7.80;;;1.90;;
61553;SDS011;47425;51.976;5.326;2022-10-16T16:24:15;9.70;;;1.88;;
61553;SDS011;47425;51.976;5.326;2022-10-16T16:26:40;8.13;;;2.45;;
61553;SDS011;47425;51.976;5.326;2022-10-16T16:29:14;7.45;;;1.95;;
61553;SDS011;47425;51.976;5.326;2022-10-16T16:31:40;8.00;;;1.67;;
61553;SDS011;47425;51.976;5.326;2022-10-16T16:34:08;12.52;;;2.20;;
61553;SDS011;47425;51.976;5.326;2022-10-16T16:36:33;5.22;;;1.60;;
61553;SDS011;47425;51.976;5.326;2022-10-16T16:38:59;7.68;;;1.77;;
61553;SDS011;47425;51.976;5.326;2022-10-16T16:41:26;5.57;;;1.85;;
61553;SDS011;47425;51.976;5.326;2022-10-16T16:43:54;7.45;;;1.85;;
61553;SDS011;47425;51.976;5.326;2022-10-16T16:46:20;11.10;;;2.10;;
61553;SDS011;47425;51.976;5.326;2022-10-16T16:48:46;9.65;;;1.90;;
61553;SDS011;47425;51.976;5.326;2022-10-16T16:51:35;6.85;;;2.20;;
61553;SDS011;47425;51.976;5.326;2022-10-16T16:54:01;10.18;;;2.28;;
61553;SDS011;47425;51.976;5.326;2022-10-16T16:56:27;8.25;;;2.15;;
61553;SDS011;47425;51.976;5.326;2022-10-16T16:58:53;9.20;;;2.65;;
61553;SDS011;47425;51.976;5.326;2022-10-16T17:01:22;6.70;;;2.47;;
61553;SDS011;47425;51.976;5.326;2022-10-16T17:03:52;7.75;;;2.20;;
61553;SDS011;47425;51.976;5.326;2022-10-16T17:06:19;7.38;;;2.63;;
61553;SDS011;47425;51.976;5.326;2022-10-16T17:11:14;10.30;;;2.90;;
61553;SDS011;47425;51.976;5.326;2022-10-16T17:13:43;5.13;;;2.55;;
61553;SDS011;47425;51.976;5.326;2022-10-16T17:16:09;8.07;;;2.60;;
61553;SDS011;47425;51.976;5.326;2022-10-16T17:18:37;8.43;;;3.10;;
61553;SDS011;47425;51.976;5.326;2022-10-16T17:21:03;9.05;;;3.00;;
61553;SDS011;47425;51.976;5.326;2022-10-16T17:23:31;12.20;;;3.20;;
61553;SDS011;47425;51.976;5.326;2022-10-16T17:26:02;6.00;;;3.13;;
61553;SDS011;47425;51.976;5.326;2022-10-16T17:28:33;11.07;;;2.97;;
61553;SDS011;47425;51.976;5.326;2022-10-16T17:31:15;9.65;;;3.20;;
61553;SDS011;47425;51.976;5.326;2022-10-16T17:33:44;7.60;;;3.08;;
61553;SDS011;47425;51.976;5.326;2022-10-16T17:36:10;8.07;;;2.80;;
61553;SDS011;47425;51.976;5.326;2022-10-16T17:41:13;7.50;;;2.50;;
61553;SDS011;47425;51.976;5.326;2022-10-16T17:43:41;11.90;;;2.65;;
61553;SDS011;47425;51.976;5.326;2022-10-16T17:46:08;9.70;;;2.42;;
61553;SDS011;47425;51.976;5.326;2022-10-16T17:48:42;8.88;;;2.70;;
61553;SDS011;47425;51.976;5.326;2022-10-16T17:51:10;7.78;;;2.17;;
61553;SDS011;47425;51.976;5.326;2022-10-16T17:53:38;6.95;;;2.30;;
61553;SDS011;47425;51.976;5.326;2022-10-16T17:56:04;9.60;;;2.95;;
61553;SDS011;47425;51.976;5.326;2022-10-16T17:58:32;4.20;;;2.15;;
61553;SDS011;47425;51.976;5.326;2022-10-16T18:00:58;7.50;;;2.75;;
61553;SDS011;47425;51.976;5.326;2022-10-16T18:03:24;7.55;;;2.55;;
61553;SDS011;47425;51.976;5.326;2022-10-16T18:05:51;9.35;;;2.33;;
61553;SDS011;47425;51.976;5.326;2022-10-16T18:08:17;4.57;;;1.92;;
61553;SDS011;47425;51.976;5.326;2022-10-16T18:10:46;7.07;;;2.13;;
61553;SDS011;47425;51.976;5.326;2022-10-16T18:13:15;10.75;;;2.40;;
61553;SDS011;47425;51.976;5.326;2022-10-16T18:15:41;6.55;;;2.28;;
61553;SDS011;47425;51.976;5.326;2022-10-16T18:18:07;5.97;;;1.88;;
61553;SDS011;47425;51.976;5.326;2022-10-16T18:20:34;6.22;;;1.98;;
61553;SDS011;47425;51.976;5.326;2022-10-16T18:22:59;5.65;;;2.10;;
61553;SDS011;47425;51.976;5.326;2022-10-16T18:25:25;5.63;;;1.90;;
61553;SDS011;47425;51.976;5.326;2022-10-16T18:27:50;5.05;;;1.90;;
61553;SDS011;47425;51.976;5.326;2022-10-16T18:30:17;6.03;;;1.98;;
61553;SDS011;47425;51.976;5.326;2022-10-16T18:32:42;7.75;;;2.38;;
61553;SDS011;47425;51.976;5.326;2022-10-16T18:35:09;4.68;;;1.90;;
61553;SDS011;47425;51.976;5.326;2022-10-16T18:37:34;7.63;;;2.30;;
61553;SDS011;47425;51.976;5.326;2022-10-16T18:40:00;3.58;;;1.80;;
61553;SDS011;47425;51.976;5.326;2022-10-16T18:42:26;8.38;;;2.15;;
61553;SDS011;47425;51.976;5.326;2022-10-16T18:44:51;4.88;;;2.00;;
61553;SDS011;47425;51.976;5.326;2022-10-16T18:47:17;5.95;;;2.50;;
61553;SDS011;47425;51.976;5.326;2022-10-16T18:49:42;4.93;;;2.00;;
61553;SDS011;47425;51.976;5.326;2022-10-16T18:52:08;6.38;;;2.35;;
61553;SDS011;47425;51.976;5.326;2022-10-16T18:54:35;5.35;;;2.30;;
61553;SDS011;47425;51.976;5.326;2022-10-16T18:57:01;4.95;;;2.03;;
61553;SDS011;47425;51.976;5.326;2022-10-16T18:59:27;5.35;;;2.15;;
61553;SDS011;47425;51.976;5.326;2022-10-16T19:01:54;3.97;;;2.15;;
61553;SDS011;47425;51.976;5.326;2022-10-16T19:04:19;4.63;;;2.22;;
61553;SDS011;47425;51.976;5.326;2022-10-16T19:06:47;5.55;;;2.15;;
61553;SDS011;47425;51.976;5.326;2022-10-16T19:09:16;6.07;;;2.15;;
61553;SDS011;47425;51.976;5.326;2022-10-16T19:11:44;3.13;;;1.50;;
61553;SDS011;47425;51.976;5.326;2022-10-16T19:14:10;3.83;;;2.58;;
61553;SDS011;47425;51.976;5.326;2022-10-16T19:16:36;4.82;;;2.10;;
61553;SDS011;47425;51.976;5.326;2022-10-16T19:19:04;4.28;;;2.00;;
61553;SDS011;47425;51.976;5.326;2022-10-16T19:21:33;4.40;;;1.95;;
61553;SDS011;47425;51.976;5.326;2022-10-16T19:24:00;3.08;;;1.63;;
61553;SDS011;47425;51.976;5.326;2022-10-16T19:26:26;4.30;;;1.63;;
61553;SDS011;47425;51.976;5.326;2022-10-16T19:29:14;4.38;;;2.08;;
61553;SDS011;47425;51.976;5.326;2022-10-16T19:31:40;4.60;;;2.00;;
61553;SDS011;47425;51.976;5.326;2022-10-16T19:34:06;4.40;;;1.98;;
61553;SDS011;47425;51.976;5.326;2022-10-16T19:36:32;3.55;;;2.00;;
61553;SDS011;47425;51.976;5.326;2022-10-16T19:39:02;6.47;;;2.03;;
61553;SDS011;47425;51.976;5.326;2022-10-16T19:41:35;5.18;;;2.20;;
61553;SDS011;47425;51.976;5.326;2022-10-16T19:44:01;4.25;;;2.55;;
61553;SDS011;47425;51.976;5.326;2022-10-16T19:46:27;3.97;;;1.70;;
61553;SDS011;47425;51.976;5.326;2022-10-16T19:48:56;4.28;;;1.80;;
61553;SDS011;47425;51.976;5.326;2022-10-16T19:51:23;3.90;;;1.95;;
61553;SDS011;47425;51.976;5.326;2022-10-16T19:53:52;4.47;;;1.88;;
61553;SDS011;47425;51.976;5.326;2022-10-16T19:56:20;3.78;;;2.10;;
61553;SDS011;47425;51.976;5.326;2022-10-16T19:58:49;4.45;;;1.95;;
61553;SDS011;47425;51.976;5.326;2022-10-16T20:01:15;4.47;;;1.80;;
61553;SDS011;47425;51.976;5.326;2022-10-16T20:03:42;4.68;;;1.83;;
61553;SDS011;47425;51.976;5.326;2022-10-16T20:08:36;3.33;;;1.88;;
61553;SDS011;47425;51.976;5.326;2022-10-16T20:11:02;4.78;;;1.95;;
61553;SDS011;47425;51.976;5.326;2022-10-16T20:13:29;3.60;;;2.00;;
61553;SDS011;47425;51.976;5.326;2022-10-16T20:15:56;5.77;;;2.17;;
61553;SDS011;47425;51.976;5.326;2022-10-16T20:18:22;5.60;;;1.98;;
61553;SDS011;47425;51.976;5.326;2022-10-16T20:20:47;3.83;;;1.80;;
61553;SDS011;47425;51.976;5.326;2022-10-16T20:23:15;3.97;;;1.77;;
61553;SDS011;47425;51.976;5.326;2022-10-16T20:25:42;2.63;;;1.77;;
61553;SDS011;47425;51.976;5.326;2022-10-16T20:28:09;5.47;;;1.80;;
61553;SDS011;47425;51.976;5.326;2022-10-16T20:30:38;3.85;;;1.90;;
61553;SDS011;47425;51.976;5.326;2022-10-16T20:33:06;3.03;;;1.73;;
61553;SDS011;47425;51.976;5.326;2022-10-16T20:35:39;3.45;;;1.67;;
61553;SDS011;47425;51.976;5.326;2022-10-16T20:38:05;4.40;;;1.70;;
61553;SDS011;47425;51.976;5.326;2022-10-16T20:40:34;5.82;;;2.20;;
61553;SDS011;47425;51.976;5.326;2022-10-16T20:43:02;3.67;;;2.00;;
61553;SDS011;47425;51.976;5.326;2022-10-16T20:45:28;3.67;;;1.70;;
61553;SDS011;47425;51.976;5.326;2022-10-16T20:47:54;4.25;;;2.03;;
61553;SDS011;47425;51.976;5.326;2022-10-16T20:50:19;4.43;;;1.90;;
61553;SDS011;47425;51.976;5.326;2022-10-16T20:52:45;2.92;;;1.98;;
61553;SDS011;47425;51.976;5.326;2022-10-16T20:55:10;2.95;;;1.80;;
61553;SDS011;47425;51.976;5.326;2022-10-16T20:57:35;3.55;;;1.83;;
61553;SDS011;47425;51.976;5.326;2022-10-16T21:00:03;2.65;;;1.73;;
61553;SDS011;47425;51.976;5.326;2022-10-16T21:02:29;5.80;;;2.08;;
61553;SDS011;47425;51.976;5.326;2022-10-16T21:04:55;5.38;;;1.83;;
61553;SDS011;47425;51.976;5.326;2022-10-16T21:07:22;2.78;;;1.90;;
61553;SDS011;47425;51.976;5.326;2022-10-16T21:09:47;4.43;;;2.08;;
61553;SDS011;47425;51.976;5.326;2022-10-16T21:12:14;7.53;;;2.08;;
61553;SDS011;47425;51.976;5.326;2022-10-16T21:14:39;5.00;;;1.80;;
61553;SDS011;47425;51.976;5.326;2022-10-16T21:17:06;6.22;;;1.83;;
61553;SDS011;47425;51.976;5.326;2022-10-16T21:19:32;5.03;;;2.05;;
61553;SDS011;47425;51.976;5.326;2022-10-16T21:21:58;2.50;;;1.38;;
61553;SDS011;47425;51.976;5.326;2022-10-16T21:24:24;2.63;;;1.90;;
61553;SDS011;47425;51.976;5.326;2022-10-16T21:26:50;2.38;;;1.90;;
61553;SDS011;47425;51.976;5.326;2022-10-16T21:29:16;3.35;;;2.17;;
61553;SDS011;47425;51.976;5.326;2022-10-16T21:31:41;2.15;;;1.50;;
61553;SDS011;47425;51.976;5.326;2022-10-16T21:34:08;4.40;;;1.83;;
61553;SDS011;47425;51.976;5.326;2022-10-16T21:36:34;3.63;;;1.55;;
61553;SDS011;47425;51.976;5.326;2022-10-16T21:39:05;4.27;;;1.60;;
61553;SDS011;47425;51.976;5.326;2022-10-16T21:41:34;3.42;;;1.70;;
61553;SDS011;47425;51.976;5.326;2022-10-16T21:44:00;2.75;;;1.70;;
61553;SDS011;47425;51.976;5.326;2022-10-16T21:46:27;2.08;;;1.50;;
61553;SDS011;47425;51.976;5.326;2022-10-16T21:48:56;2.85;;;1.42;;
61553;SDS011;47425;51.976;5.326;2022-10-16T21:51:25;3.85;;;1.83;;
61553;SDS011;47425;51.976;5.326;2022-10-16T21:53:51;3.80;;;1.55;;
61553;SDS011;47425;51.976;5.326;2022-10-16T21:56:17;2.17;;;1.30;;
61553;SDS011;47425;51.976;5.326;2022-10-16T21:58:43;2.42;;;1.55;;
61553;SDS011;47425;51.976;5.326;2022-10-16T22:01:10;2.05;;;1.52;;
61553;SDS011;47425;51.976;5.326;2022-10-16T22:03:37;3.05;;;1.50;;
61553;SDS011;47425;51.976;5.326;2022-10-16T22:06:03;2.38;;;1.33;;
61553;SDS011;47425;51.976;5.326;2022-10-16T22:08:31;2.70;;;1.40;;
61553;SDS011;47425;51.976;5.326;2022-10-16T22:13:31;3.10;;;1.60;;
61553;SDS011;47425;51.976;5.326;2022-10-16T22:15:57;2.35;;;1.60;;
61553;SDS011;47425;51.976;5.326;2022-10-16T22:18:23;2.80;;;1.40;;
61553;SDS011;47425;51.976;5.326;2022-10-16T22:20:49;3.08;;;1.38;;
61553;SDS011;47425;51.976;5.326;2022-10-16T22:23:14;3.20;;;1.63;;
61553;SDS011;47425;51.976;5.326;2022-10-16T22:25:41;3.55;;;1.40;;
61553;SDS011;47425;51.976;5.326;2022-10-16T22:28:07;1.83;;;1.50;;
